sensor_id;sensor_type;location;lat;lon;timestamp;P1;durP1;ratioP1;P2;durP2;ratioP2
6735;SDS011;3405;50.576;12.364;2023-04-02T00:02:24;38.95;;;33.08;;
6735;SDS011;3405;50.576;12.364;2023-04-02T00:07:40;35.28;;;31.05;;
6735;SDS011;3405;50.576;12.364;2023-04-02T00:10:24;33.60;;;29.70;;
6735;SDS011;3405;50.576;12.364;2023-04-02T00:13:18;35.58;;;31.27;;
6735;SDS011;3405;50.576;12.364;2023-04-02T00:15:47;33.55;;;28.95;;
6735;SDS011;3405;50.576;12.364;2023-04-02T00:18:15;35.45;;;30.52;;
6735;SDS011;3405;50.576;12.364;2023-04-02T00:20:43;31.95;;;28.38;;
6735;SDS011;3405;50.576;12.364;2023-04-02T00:23:12;32.15;;;28.38;;
6735;SDS011;3405;50.576;12.364;2023-04-02T00:25:39;30.83;;;27.52;;
6735;SDS011;3405;50.576;12.364;2023-04-02T00:28:11;31.95;;;27.55;;
6735;SDS011;3405;50.576;12.364;2023-04-02T00:30:37;30.40;;;26.92;;
6735;SDS011;3405;50.576;12.364;2023-04-02T00:33:11;31.77;;;27.25;;
6735;SDS011;3405;50.576;12.364;2023-04-02T00:35:40;32.17;;;26.77;;
6735;SDS011;3405;50.576;12.364;2023-04-02T00:38:06;30.95;;;27.58;;
6735;SDS011;3405;50.576;12.364;2023-04-02T00:40:35;32.20;;;26.50;;
6735;SDS011;3405;50.576;12.364;2023-04-02T00:43:03;28.13;;;24.70;;
6735;SDS011;3405;50.576;12.364;2023-04-02T00:45:31;28.35;;;24.75;;
6735;SDS011;3405;50.576;12.364;2023-04-02T00:48:12;27.50;;;24.55;;
6735;SDS011;3405;50.576;12.364;2023-04-02T00:50:39;26.83;;;23.23;;
6735;SDS011;3405;50.576;12.364;2023-04-02T00:53:10;27.75;;;23.90;;
6735;SDS011;3405;50.576;12.364;2023-04-02T00:55:40;25.92;;;23.13;;
6735;SDS011;3405;50.576;12.364;2023-04-02T00:58:18;26.15;;;23.23;;
6735;SDS011;3405;50.576;12.364;2023-04-02T01:00:50;26.92;;;22.60;;
6735;SDS011;3405;50.576;12.364;2023-04-02T01:05:43;24.70;;;21.48;;
6735;SDS011;3405;50.576;12.364;2023-04-02T01:08:15;25.50;;;22.00;;
6735;SDS011;3405;50.576;12.364;2023-04-02T01:13:24;23.92;;;21.15;;
6735;SDS011;3405;50.576;12.364;2023-04-02T01:15:59;24.60;;;21.27;;
6735;SDS011;3405;50.576;12.364;2023-04-02T01:18:34;23.85;;;21.25;;
6735;SDS011;3405;50.576;12.364;2023-04-02T01:23:43;22.45;;;20.00;;
6735;SDS011;3405;50.576;12.364;2023-04-02T01:26:21;23.35;;;20.40;;
6735;SDS011;3405;50.576;12.364;2023-04-02T01:28:54;21.55;;;19.15;;
6735;SDS011;3405;50.576;12.364;2023-04-02T01:31:23;22.05;;;18.88;;
6735;SDS011;3405;50.576;12.364;2023-04-02T01:33:51;22.25;;;19.13;;
6735;SDS011;3405;50.576;12.364;2023-04-02T01:36:21;21.02;;;18.75;;
6735;SDS011;3405;50.576;12.364;2023-04-02T01:39:07;20.63;;;17.40;;
6735;SDS011;3405;50.576;12.364;2023-04-02T01:41:47;21.20;;;18.35;;
6735;SDS011;3405;50.576;12.364;2023-04-02T01:44:17;20.13;;;17.60;;
6735;SDS011;3405;50.576;12.364;2023-04-02T01:46:46;19.20;;;17.13;;
6735;SDS011;3405;50.576;12.364;2023-04-02T01:49:14;18.38;;;16.38;;
6735;SDS011;3405;50.576;12.364;2023-04-02T01:51:44;18.33;;;16.38;;
6735;SDS011;3405;50.576;12.364;2023-04-02T01:54:12;19.33;;;16.50;;
6735;SDS011;3405;50.576;12.364;2023-04-02T01:56:38;20.00;;;16.55;;
6735;SDS011;3405;50.576;12.364;2023-04-02T01:59:06;17.98;;;16.05;;
6735;SDS011;3405;50.576;12.364;2023-04-02T02:01:35;17.73;;;15.75;;
6735;SDS011;3405;50.576;12.364;2023-04-02T02:04:03;16.48;;;14.70;;
6735;SDS011;3405;50.576;12.364;2023-04-02T02:06:29;17.60;;;15.60;;
6735;SDS011;3405;50.576;12.364;2023-04-02T02:08:57;15.48;;;13.88;;
6735;SDS011;3405;50.576;12.364;2023-04-02T02:11:25;16.33;;;14.63;;
6735;SDS011;3405;50.576;12.364;2023-04-02T02:13:54;17.52;;;14.80;;
6735;SDS011;3405;50.576;12.364;2023-04-02T02:16:20;15.95;;;14.25;;
6735;SDS011;3405;50.576;12.364;2023-04-02T02:18:50;15.30;;;13.70;;
6735;SDS011;3405;50.576;12.364;2023-04-02T02:21:26;15.15;;;13.15;;
6735;SDS011;3405;50.576;12.364;2023-04-02T02:23:54;14.15;;;12.60;;
6735;SDS011;3405;50.576;12.364;2023-04-02T02:26:21;15.73;;;13.82;;
6735;SDS011;3405;50.576;12.364;2023-04-02T02:28:48;15.15;;;13.50;;
6735;SDS011;3405;50.576;12.364;2023-04-02T02:31:20;14.10;;;12.68;;
6735;SDS011;3405;50.576;12.364;2023-04-02T02:33:51;14.52;;;12.15;;
6735;SDS011;3405;50.576;12.364;2023-04-02T02:36:22;14.80;;;13.20;;
6735;SDS011;3405;50.576;12.364;2023-04-02T02:38:56;13.23;;;11.82;;
6735;SDS011;3405;50.576;12.364;2023-04-02T02:41:24;12.57;;;11.10;;
6735;SDS011;3405;50.576;12.364;2023-04-02T02:44:02;12.85;;;11.35;;
6735;SDS011;3405;50.576;12.364;2023-04-02T02:46:29;12.80;;;11.40;;
6735;SDS011;3405;50.576;12.364;2023-04-02T02:48:56;12.45;;;11.15;;
6735;SDS011;3405;50.576;12.364;2023-04-02T02:51:28;12.93;;;11.38;;
6735;SDS011;3405;50.576;12.364;2023-04-02T02:53:58;12.73;;;11.35;;
6735;SDS011;3405;50.576;12.364;2023-04-02T02:56:25;12.27;;;10.95;;
6735;SDS011;3405;50.576;12.364;2023-04-02T02:58:52;11.85;;;10.65;;
6735;SDS011;3405;50.576;12.364;2023-04-02T03:01:18;12.35;;;10.60;;
6735;SDS011;3405;50.576;12.364;2023-04-02T03:03:45;11.00;;;9.82;;
6735;SDS011;3405;50.576;12.364;2023-04-02T03:06:13;10.77;;;9.68;;
6735;SDS011;3405;50.576;12.364;2023-04-02T03:08:42;11.02;;;9.82;;
6735;SDS011;3405;50.576;12.364;2023-04-02T03:11:10;11.50;;;10.30;;
6735;SDS011;3405;50.576;12.364;2023-04-02T03:13:38;10.65;;;9.55;;
6735;SDS011;3405;50.576;12.364;2023-04-02T03:18:52;10.02;;;8.82;;
6735;SDS011;3405;50.576;12.364;2023-04-02T03:21:21;9.98;;;8.95;;
6735;SDS011;3405;50.576;12.364;2023-04-02T03:23:56;10.25;;;9.15;;
6735;SDS011;3405;50.576;12.364;2023-04-02T03:26:34;9.75;;;8.75;;
6735;SDS011;3405;50.576;12.364;2023-04-02T03:31:36;9.32;;;8.40;;
6735;SDS011;3405;50.576;12.364;2023-04-02T03:34:17;9.43;;;8.43;;
6735;SDS011;3405;50.576;12.364;2023-04-02T03:36:48;9.52;;;8.27;;
6735;SDS011;3405;50.576;12.364;2023-04-02T03:39:19;8.50;;;7.60;;
6735;SDS011;3405;50.576;12.364;2023-04-02T03:44:15;8.75;;;7.82;;
6735;SDS011;3405;50.576;12.364;2023-04-02T03:46:44;8.75;;;7.78;;
6735;SDS011;3405;50.576;12.364;2023-04-02T03:49:27;7.90;;;7.10;;
6735;SDS011;3405;50.576;12.364;2023-04-02T03:51:56;7.97;;;7.18;;
6735;SDS011;3405;50.576;12.364;2023-04-02T03:54:23;7.65;;;6.78;;
6735;SDS011;3405;50.576;12.364;2023-04-02T03:56:49;7.05;;;6.35;;
6735;SDS011;3405;50.576;12.364;2023-04-02T03:59:28;8.00;;;6.88;;
6735;SDS011;3405;50.576;12.364;2023-04-02T04:04:54;7.25;;;6.55;;
6735;SDS011;3405;50.576;12.364;2023-04-02T04:07:37;6.82;;;6.13;;
6735;SDS011;3405;50.576;12.364;2023-04-02T04:10:05;6.80;;;6.10;;
6735;SDS011;3405;50.576;12.364;2023-04-02T04:15:06;6.63;;;5.85;;
6735;SDS011;3405;50.576;12.364;2023-04-02T04:17:34;6.97;;;5.93;;
6735;SDS011;3405;50.576;12.364;2023-04-02T04:20:08;6.38;;;5.78;;
6735;SDS011;3405;50.576;12.364;2023-04-02T04:22:38;5.95;;;5.35;;
6735;SDS011;3405;50.576;12.364;2023-04-02T04:25:05;6.20;;;5.60;;
6735;SDS011;3405;50.576;12.364;2023-04-02T04:27:35;5.13;;;4.70;;
6735;SDS011;3405;50.576;12.364;2023-04-02T04:32:37;5.85;;;5.18;;
6735;SDS011;3405;50.576;12.364;2023-04-02T04:37:33;5.50;;;5.00;;
6735;SDS011;3405;50.576;12.364;2023-04-02T04:42:32;4.70;;;4.30;;
6735;SDS011;3405;50.576;12.364;2023-04-02T04:50:27;4.68;;;4.18;;
6735;SDS011;3405;50.576;12.364;2023-04-02T04:52:55;5.32;;;4.82;;
6735;SDS011;3405;50.576;12.364;2023-04-02T04:55:26;4.70;;;4.30;;
6735;SDS011;3405;50.576;12.364;2023-04-02T04:58:03;5.28;;;4.78;;
6735;SDS011;3405;50.576;12.364;2023-04-02T05:05:46;3.95;;;3.58;;
6735;SDS011;3405;50.576;12.364;2023-04-02T05:08:19;4.78;;;4.28;;
6735;SDS011;3405;50.576;12.364;2023-04-02T05:13:14;4.38;;;3.97;;
6735;SDS011;3405;50.576;12.364;2023-04-02T05:15:47;4.18;;;3.70;;
6735;SDS011;3405;50.576;12.364;2023-04-02T05:18:28;4.53;;;4.13;;
6735;SDS011;3405;50.576;12.364;2023-04-02T05:21:04;3.88;;;3.58;;
6735;SDS011;3405;50.576;12.364;2023-04-02T05:23:36;3.80;;;3.50;;
6735;SDS011;3405;50.576;12.364;2023-04-02T05:26:10;3.85;;;3.55;;
6735;SDS011;3405;50.576;12.364;2023-04-02T05:31:09;3.70;;;3.40;;
6735;SDS011;3405;50.576;12.364;2023-04-02T05:33:37;3.40;;;3.10;;
6735;SDS011;3405;50.576;12.364;2023-04-02T05:36:05;3.85;;;3.45;;
6735;SDS011;3405;50.576;12.364;2023-04-02T05:38:33;3.67;;;3.38;;
6735;SDS011;3405;50.576;12.364;2023-04-02T05:43:26;4.35;;;2.45;;
6735;SDS011;3405;50.576;12.364;2023-04-02T05:45:54;5.30;;;3.22;;
6735;SDS011;3405;50.576;12.364;2023-04-02T05:48:24;4.30;;;2.80;;
6735;SDS011;3405;50.576;12.364;2023-04-02T05:50:52;5.18;;;3.03;;
6735;SDS011;3405;50.576;12.364;2023-04-02T05:53:24;5.15;;;2.58;;
6735;SDS011;3405;50.576;12.364;2023-04-02T05:55:55;4.95;;;2.65;;
6735;SDS011;3405;50.576;12.364;2023-04-02T05:58:33;3.70;;;2.38;;
6735;SDS011;3405;50.576;12.364;2023-04-02T06:01:06;4.72;;;2.30;;
6735;SDS011;3405;50.576;12.364;2023-04-02T06:03:41;8.90;;;2.80;;
6735;SDS011;3405;50.576;12.364;2023-04-02T06:08:57;6.38;;;2.80;;
6735;SDS011;3405;50.576;12.364;2023-04-02T06:11:29;2.58;;;1.90;;
6735;SDS011;3405;50.576;12.364;2023-04-02T06:13:56;9.00;;;2.08;;
6735;SDS011;3405;50.576;12.364;2023-04-02T06:16:24;2.90;;;1.83;;
6735;SDS011;3405;50.576;12.364;2023-04-02T06:18:50;2.58;;;2.00;;
6735;SDS011;3405;50.576;12.364;2023-04-02T06:21:17;2.10;;;1.75;;
6735;SDS011;3405;50.576;12.364;2023-04-02T06:23:52;2.72;;;1.73;;
6735;SDS011;3405;50.576;12.364;2023-04-02T06:26:33;1.88;;;1.45;;
6735;SDS011;3405;50.576;12.364;2023-04-02T06:32:00;3.38;;;1.70;;
6735;SDS011;3405;50.576;12.364;2023-04-02T06:34:25;2.38;;;1.60;;
6735;SDS011;3405;50.576;12.364;2023-04-02T06:36:56;5.85;;;1.73;;
6735;SDS011;3405;50.576;12.364;2023-04-02T06:39:23;3.95;;;1.63;;
6735;SDS011;3405;50.576;12.364;2023-04-02T06:42:10;3.92;;;1.60;;
6735;SDS011;3405;50.576;12.364;2023-04-02T06:44:37;3.95;;;1.63;;
6735;SDS011;3405;50.576;12.364;2023-04-02T06:47:18;5.32;;;2.00;;
6735;SDS011;3405;50.576;12.364;2023-04-02T06:49:52;1.83;;;1.52;;
6735;SDS011;3405;50.576;12.364;2023-04-02T06:52:22;2.95;;;2.63;;
6735;SDS011;3405;50.576;12.364;2023-04-02T06:54:48;3.90;;;3.50;;
6735;SDS011;3405;50.576;12.364;2023-04-02T06:57:15;6.25;;;4.07;;
6735;SDS011;3405;50.576;12.364;2023-04-02T06:59:41;3.88;;;3.42;;
6735;SDS011;3405;50.576;12.364;2023-04-02T07:02:27;9.98;;;7.90;;
6735;SDS011;3405;50.576;12.364;2023-04-02T07:04:58;14.98;;;12.68;;
6735;SDS011;3405;50.576;12.364;2023-04-02T07:07:25;15.93;;;14.43;;
6735;SDS011;3405;50.576;12.364;2023-04-02T07:09:51;15.07;;;13.77;;
6735;SDS011;3405;50.576;12.364;2023-04-02T07:12:18;13.25;;;11.95;;
6735;SDS011;3405;50.576;12.364;2023-04-02T07:14:47;12.18;;;10.70;;
6735;SDS011;3405;50.576;12.364;2023-04-02T07:17:14;9.98;;;9.18;;
6735;SDS011;3405;50.576;12.364;2023-04-02T07:19:41;10.80;;;9.52;;
6735;SDS011;3405;50.576;12.364;2023-04-02T07:22:09;39.90;;;18.45;;
6735;SDS011;3405;50.576;12.364;2023-04-02T07:24:35;31.02;;;14.70;;
6735;SDS011;3405;50.576;12.364;2023-04-02T07:27:01;22.98;;;11.93;;
6735;SDS011;3405;50.576;12.364;2023-04-02T07:29:30;23.67;;;11.25;;
6735;SDS011;3405;50.576;12.364;2023-04-02T07:31:56;19.52;;;11.73;;
6735;SDS011;3405;50.576;12.364;2023-04-02T07:34:22;16.40;;;9.75;;
6735;SDS011;3405;50.576;12.364;2023-04-02T07:36:48;15.27;;;9.50;;
6735;SDS011;3405;50.576;12.364;2023-04-02T07:39:13;15.52;;;8.73;;
6735;SDS011;3405;50.576;12.364;2023-04-02T07:41:49;14.70;;;8.48;;
6735;SDS011;3405;50.576;12.364;2023-04-02T07:44:15;14.20;;;7.55;;
6735;SDS011;3405;50.576;12.364;2023-04-02T07:46:41;14.05;;;7.30;;
6735;SDS011;3405;50.576;12.364;2023-04-02T07:49:07;11.15;;;7.18;;
6735;SDS011;3405;50.576;12.364;2023-04-02T07:51:33;9.25;;;6.45;;
6735;SDS011;3405;50.576;12.364;2023-04-02T07:53:59;8.80;;;6.68;;
6735;SDS011;3405;50.576;12.364;2023-04-02T07:56:25;10.02;;;6.30;;
6735;SDS011;3405;50.576;12.364;2023-04-02T07:58:52;11.07;;;6.28;;
6735;SDS011;3405;50.576;12.364;2023-04-02T08:01:19;7.95;;;5.95;;
6735;SDS011;3405;50.576;12.364;2023-04-02T08:03:47;8.82;;;5.70;;
6735;SDS011;3405;50.576;12.364;2023-04-02T08:06:13;6.85;;;5.43;;
6735;SDS011;3405;50.576;12.364;2023-04-02T08:08:40;9.82;;;5.55;;
6735;SDS011;3405;50.576;12.364;2023-04-02T08:11:06;6.03;;;5.05;;
6735;SDS011;3405;50.576;12.364;2023-04-02T08:13:32;5.32;;;4.60;;
6735;SDS011;3405;50.576;12.364;2023-04-02T08:15:58;9.55;;;5.07;;
6735;SDS011;3405;50.576;12.364;2023-04-02T08:18:24;7.07;;;5.07;;
6735;SDS011;3405;50.576;12.364;2023-04-02T08:20:50;6.32;;;4.60;;
6735;SDS011;3405;50.576;12.364;2023-04-02T08:23:17;7.32;;;4.22;;
6735;SDS011;3405;50.576;12.364;2023-04-02T08:25:43;9.43;;;4.68;;
6735;SDS011;3405;50.576;12.364;2023-04-02T08:28:10;8.70;;;4.15;;
6735;SDS011;3405;50.576;12.364;2023-04-02T08:30:36;7.15;;;4.05;;
6735;SDS011;3405;50.576;12.364;2023-04-02T08:33:02;6.15;;;4.40;;
6735;SDS011;3405;50.576;12.364;2023-04-02T08:35:28;9.00;;;4.38;;
6735;SDS011;3405;50.576;12.364;2023-04-02T08:37:54;7.57;;;4.57;;
6735;SDS011;3405;50.576;12.364;2023-04-02T08:40:25;6.53;;;4.30;;
6735;SDS011;3405;50.576;12.364;2023-04-02T08:47:49;5.00;;;3.90;;
6735;SDS011;3405;50.576;12.364;2023-04-02T08:50:23;4.60;;;3.90;;
6735;SDS011;3405;50.576;12.364;2023-04-02T08:52:51;5.57;;;3.70;;
6735;SDS011;3405;50.576;12.364;2023-04-02T08:55:18;7.55;;;3.80;;
6735;SDS011;3405;50.576;12.364;2023-04-02T08:57:56;5.82;;;3.60;;
6735;SDS011;3405;50.576;12.364;2023-04-02T09:00:32;6.55;;;3.05;;
6735;SDS011;3405;50.576;12.364;2023-04-02T09:03:02;6.13;;;3.50;;
6735;SDS011;3405;50.576;12.364;2023-04-02T09:05:32;8.38;;;3.78;;
6735;SDS011;3405;50.576;12.364;2023-04-02T09:08:00;7.18;;;3.22;;
6735;SDS011;3405;50.576;12.364;2023-04-02T09:10:37;4.90;;;3.33;;
6735;SDS011;3405;50.576;12.364;2023-04-02T09:13:15;5.57;;;3.38;;
6735;SDS011;3405;50.576;12.364;2023-04-02T09:15:43;6.60;;;3.35;;
6735;SDS011;3405;50.576;12.364;2023-04-02T09:18:16;3.88;;;2.60;;
6735;SDS011;3405;50.576;12.364;2023-04-02T09:20:43;6.82;;;3.60;;
6735;SDS011;3405;50.576;12.364;2023-04-02T09:23:12;15.98;;;6.60;;
6735;SDS011;3405;50.576;12.364;2023-04-02T09:25:42;36.90;;;13.35;;
6735;SDS011;3405;50.576;12.364;2023-04-02T09:28:09;53.88;;;19.88;;
6735;SDS011;3405;50.576;12.364;2023-04-02T09:30:40;60.25;;;21.52;;
6735;SDS011;3405;50.576;12.364;2023-04-02T09:33:08;76.57;;;22.52;;
6735;SDS011;3405;50.576;12.364;2023-04-02T09:35:35;95.20;;;25.30;;
6735;SDS011;3405;50.576;12.364;2023-04-02T09:38:15;84.10;;;23.60;;
6735;SDS011;3405;50.576;12.364;2023-04-02T09:40:49;78.18;;;23.05;;
6735;SDS011;3405;50.576;12.364;2023-04-02T09:45:42;63.55;;;21.50;;
6735;SDS011;3405;50.576;12.364;2023-04-02T09:48:22;70.65;;;19.95;;
6735;SDS011;3405;50.576;12.364;2023-04-02T09:50:48;61.30;;;19.38;;
6735;SDS011;3405;50.576;12.364;2023-04-02T09:53:28;52.95;;;17.52;;
6735;SDS011;3405;50.576;12.364;2023-04-02T09:56:07;48.85;;;16.02;;
6735;SDS011;3405;50.576;12.364;2023-04-02T09:58:33;51.63;;;14.93;;
6735;SDS011;3405;50.576;12.364;2023-04-02T10:00:59;39.72;;;12.13;;
6735;SDS011;3405;50.576;12.364;2023-04-02T10:03:30;30.45;;;10.05;;
6735;SDS011;3405;50.576;12.364;2023-04-02T10:06:08;27.83;;;9.70;;
6735;SDS011;3405;50.576;12.364;2023-04-02T10:08:35;26.48;;;8.60;;
6735;SDS011;3405;50.576;12.364;2023-04-02T10:11:02;26.42;;;8.65;;
6735;SDS011;3405;50.576;12.364;2023-04-02T10:20:46;26.35;;;7.32;;
6735;SDS011;3405;50.576;12.364;2023-04-02T10:23:16;20.80;;;6.78;;
6735;SDS011;3405;50.576;12.364;2023-04-02T10:25:45;19.10;;;5.60;;
6735;SDS011;3405;50.576;12.364;2023-04-02T10:33:45;18.02;;;5.72;;
6735;SDS011;3405;50.576;12.364;2023-04-02T10:36:19;13.60;;;4.50;;
6735;SDS011;3405;50.576;12.364;2023-04-02T10:38:51;11.20;;;4.90;;
6735;SDS011;3405;50.576;12.364;2023-04-02T10:43:53;11.82;;;4.03;;
6735;SDS011;3405;50.576;12.364;2023-04-02T10:47:06;14.45;;;4.50;;
6735;SDS011;3405;50.576;12.364;2023-04-02T10:49:19;6.85;;;3.92;;
6735;SDS011;3405;50.576;12.364;2023-04-02T10:51:54;9.63;;;3.75;;
6735;SDS011;3405;50.576;12.364;2023-04-02T11:05:50;11.55;;;3.90;;
6735;SDS011;3405;50.576;12.364;2023-04-02T11:08:04;8.60;;;3.65;;
6735;SDS011;3405;50.576;12.364;2023-04-02T11:10:33;11.35;;;4.35;;
6735;SDS011;3405;50.576;12.364;2023-04-02T11:13:02;13.40;;;4.28;;
6735;SDS011;3405;50.576;12.364;2023-04-02T11:15:30;202.32;;;77.93;;
6735;SDS011;3405;50.576;12.364;2023-04-02T11:17:56;565.72;;;278.15;;
6735;SDS011;3405;50.576;12.364;2023-04-02T11:20:41;496.73;;;245.05;;
6735;SDS011;3405;50.576;12.364;2023-04-02T11:23:11;360.05;;;157.27;;
6735;SDS011;3405;50.576;12.364;2023-04-02T11:25:37;318.25;;;125.18;;
6735;SDS011;3405;50.576;12.364;2023-04-02T11:30:48;186.55;;;75.28;;
6735;SDS011;3405;50.576;12.364;2023-04-02T11:33:24;180.07;;;72.32;;
6735;SDS011;3405;50.576;12.364;2023-04-02T11:36:00;168.23;;;70.97;;
6735;SDS011;3405;50.576;12.364;2023-04-02T11:40:52;167.45;;;68.95;;
6735;SDS011;3405;50.576;12.364;2023-04-02T11:46:02;163.93;;;68.65;;
6735;SDS011;3405;50.576;12.364;2023-04-02T11:48:32;173.50;;;67.57;;
6735;SDS011;3405;50.576;12.364;2023-04-02T11:51:00;163.48;;;64.95;;
6735;SDS011;3405;50.576;12.364;2023-04-02T11:53:32;152.93;;;62.35;;
6735;SDS011;3405;50.576;12.364;2023-04-02T11:56:06;148.75;;;61.33;;
6735;SDS011;3405;50.576;12.364;2023-04-02T12:01:20;123.80;;;52.58;;
6735;SDS011;3405;50.576;12.364;2023-04-02T12:03:56;130.57;;;52.33;;
6735;SDS011;3405;50.576;12.364;2023-04-02T12:09:26;107.05;;;44.67;;
6735;SDS011;3405;50.576;12.364;2023-04-02T12:11:55;98.50;;;42.05;;
6735;SDS011;3405;50.576;12.364;2023-04-02T12:16:56;91.50;;;37.72;;
6735;SDS011;3405;50.576;12.364;2023-04-02T12:19:23;92.40;;;38.88;;
6735;SDS011;3405;50.576;12.364;2023-04-02T12:21:51;97.93;;;40.20;;
6735;SDS011;3405;50.576;12.364;2023-04-02T12:24:18;88.40;;;37.83;;
6735;SDS011;3405;50.576;12.364;2023-04-02T12:26:45;83.85;;;36.78;;
6735;SDS011;3405;50.576;12.364;2023-04-02T12:29:15;77.38;;;35.45;;
6735;SDS011;3405;50.576;12.364;2023-04-02T12:31:42;84.18;;;35.42;;
6735;SDS011;3405;50.576;12.364;2023-04-02T12:34:12;76.80;;;34.70;;
6735;SDS011;3405;50.576;12.364;2023-04-02T12:36:39;75.63;;;34.28;;
6735;SDS011;3405;50.576;12.364;2023-04-02T12:39:15;67.95;;;30.83;;
6735;SDS011;3405;50.576;12.364;2023-04-02T12:41:42;71.22;;;31.75;;
6735;SDS011;3405;50.576;12.364;2023-04-02T12:44:15;66.53;;;30.23;;
6735;SDS011;3405;50.576;12.364;2023-04-02T12:46:41;63.70;;;29.50;;
6735;SDS011;3405;50.576;12.364;2023-04-02T12:51:39;63.05;;;28.33;;
6735;SDS011;3405;50.576;12.364;2023-04-02T12:54:05;69.28;;;30.80;;
6735;SDS011;3405;50.576;12.364;2023-04-02T12:56:31;65.10;;;30.00;;
6735;SDS011;3405;50.576;12.364;2023-04-02T12:58:58;61.45;;;28.67;;
6735;SDS011;3405;50.576;12.364;2023-04-02T13:01:25;62.42;;;28.83;;
6735;SDS011;3405;50.576;12.364;2023-04-02T13:03:59;56.42;;;27.52;;
6735;SDS011;3405;50.576;12.364;2023-04-02T13:06:25;51.30;;;23.60;;
6735;SDS011;3405;50.576;12.364;2023-04-02T13:08:51;55.22;;;25.40;;
6735;SDS011;3405;50.576;12.364;2023-04-02T13:11:18;55.50;;;23.50;;
6735;SDS011;3405;50.576;12.364;2023-04-02T13:13:45;51.50;;;23.23;;
6735;SDS011;3405;50.576;12.364;2023-04-02T13:18:45;49.65;;;22.63;;
6735;SDS011;3405;50.576;12.364;2023-04-02T13:23:45;45.75;;;21.27;;
6735;SDS011;3405;50.576;12.364;2023-04-02T13:26:14;40.17;;;21.30;;
6735;SDS011;3405;50.576;12.364;2023-04-02T13:28:41;41.55;;;19.90;;
6735;SDS011;3405;50.576;12.364;2023-04-02T13:31:14;42.08;;;19.50;;
6735;SDS011;3405;50.576;12.364;2023-04-02T13:33:43;40.85;;;19.00;;
6735;SDS011;3405;50.576;12.364;2023-04-02T13:36:11;39.95;;;19.27;;
6735;SDS011;3405;50.576;12.364;2023-04-02T13:38:38;43.47;;;19.00;;
6735;SDS011;3405;50.576;12.364;2023-04-02T13:41:04;46.20;;;18.25;;
6735;SDS011;3405;50.576;12.364;2023-04-02T13:43:30;36.35;;;18.23;;
6735;SDS011;3405;50.576;12.364;2023-04-02T13:45:56;38.67;;;18.08;;
6735;SDS011;3405;50.576;12.364;2023-04-02T13:48:23;41.28;;;18.48;;
6735;SDS011;3405;50.576;12.364;2023-04-02T13:50:52;39.40;;;18.85;;
6735;SDS011;3405;50.576;12.364;2023-04-02T13:53:20;33.30;;;16.85;;
6735;SDS011;3405;50.576;12.364;2023-04-02T13:55:46;41.13;;;17.83;;
6735;SDS011;3405;50.576;12.364;2023-04-02T13:58:12;35.75;;;16.83;;
6735;SDS011;3405;50.576;12.364;2023-04-02T14:00:38;40.83;;;17.10;;
6735;SDS011;3405;50.576;12.364;2023-04-02T14:03:06;37.10;;;16.50;;
6735;SDS011;3405;50.576;12.364;2023-04-02T14:08:28;31.63;;;15.23;;
6735;SDS011;3405;50.576;12.364;2023-04-02T14:13:29;31.75;;;14.73;;
6735;SDS011;3405;50.576;12.364;2023-04-02T14:18:35;29.80;;;15.00;;
6735;SDS011;3405;50.576;12.364;2023-04-02T14:26:39;27.95;;;13.95;;
6735;SDS011;3405;50.576;12.364;2023-04-02T14:31:56;29.75;;;14.43;;
6735;SDS011;3405;50.576;12.364;2023-04-02T14:34:45;26.55;;;13.45;;
6735;SDS011;3405;50.576;12.364;2023-04-02T14:37:23;25.35;;;12.55;;
6735;SDS011;3405;50.576;12.364;2023-04-02T14:40:01;26.92;;;12.68;;
6735;SDS011;3405;50.576;12.364;2023-04-02T14:42:51;24.42;;;12.88;;
6735;SDS011;3405;50.576;12.364;2023-04-02T14:47:46;22.85;;;11.80;;
6735;SDS011;3405;50.576;12.364;2023-04-02T14:50:18;24.63;;;11.75;;
6735;SDS011;3405;50.576;12.364;2023-04-02T14:52:45;25.80;;;12.75;;
6735;SDS011;3405;50.576;12.364;2023-04-02T14:55:15;26.33;;;11.57;;
6735;SDS011;3405;50.576;12.364;2023-04-02T14:57:44;21.85;;;11.27;;
6735;SDS011;3405;50.576;12.364;2023-04-02T15:00:29;22.27;;;11.38;;
6735;SDS011;3405;50.576;12.364;2023-04-02T15:05:47;25.67;;;10.70;;
6735;SDS011;3405;50.576;12.364;2023-04-02T15:08:19;22.73;;;11.85;;
6735;SDS011;3405;50.576;12.364;2023-04-02T15:10:54;21.65;;;11.45;;
6735;SDS011;3405;50.576;12.364;2023-04-02T15:13:24;20.60;;;11.13;;
6735;SDS011;3405;50.576;12.364;2023-04-02T15:15:55;21.45;;;10.30;;
6735;SDS011;3405;50.576;12.364;2023-04-02T15:18:22;20.75;;;10.57;;
6735;SDS011;3405;50.576;12.364;2023-04-02T15:25:54;20.80;;;10.10;;
6735;SDS011;3405;50.576;12.364;2023-04-02T15:28:26;19.08;;;10.18;;
6735;SDS011;3405;50.576;12.364;2023-04-02T15:30:54;15.80;;;9.15;;
6735;SDS011;3405;50.576;12.364;2023-04-02T15:33:33;17.05;;;9.48;;
6735;SDS011;3405;50.576;12.364;2023-04-02T15:36:10;18.38;;;9.27;;
6735;SDS011;3405;50.576;12.364;2023-04-02T15:38:40;18.75;;;8.93;;
6735;SDS011;3405;50.576;12.364;2023-04-02T15:41:14;19.23;;;9.40;;
6735;SDS011;3405;50.576;12.364;2023-04-02T15:44:03;18.38;;;9.00;;
6735;SDS011;3405;50.576;12.364;2023-04-02T15:49:28;15.93;;;8.60;;
6735;SDS011;3405;50.576;12.364;2023-04-02T15:52:00;14.60;;;7.88;;
6735;SDS011;3405;50.576;12.364;2023-04-02T15:54:36;13.85;;;7.95;;
6735;SDS011;3405;50.576;12.364;2023-04-02T15:57:23;15.35;;;7.85;;
6735;SDS011;3405;50.576;12.364;2023-04-02T16:00:11;15.93;;;8.20;;
6735;SDS011;3405;50.576;12.364;2023-04-02T16:05:35;12.88;;;8.00;;
6735;SDS011;3405;50.576;12.364;2023-04-02T16:10:48;13.43;;;7.18;;
6735;SDS011;3405;50.576;12.364;2023-04-02T16:13:17;12.90;;;7.55;;
6735;SDS011;3405;50.576;12.364;2023-04-02T16:15:45;12.52;;;6.63;;
6735;SDS011;3405;50.576;12.364;2023-04-02T16:18:27;13.20;;;7.07;;
6735;SDS011;3405;50.576;12.364;2023-04-02T16:20:54;12.15;;;6.60;;
6735;SDS011;3405;50.576;12.364;2023-04-02T16:23:28;13.27;;;7.32;;
6735;SDS011;3405;50.576;12.364;2023-04-02T16:26:12;12.05;;;6.72;;
6735;SDS011;3405;50.576;12.364;2023-04-02T16:28:45;12.73;;;6.68;;
6735;SDS011;3405;50.576;12.364;2023-04-02T16:31:28;13.65;;;7.03;;
6735;SDS011;3405;50.576;12.364;2023-04-02T16:33:58;13.13;;;7.00;;
6735;SDS011;3405;50.576;12.364;2023-04-02T16:39:12;11.65;;;6.63;;
6735;SDS011;3405;50.576;12.364;2023-04-02T16:44:27;11.52;;;5.72;;
6735;SDS011;3405;50.576;12.364;2023-04-02T16:46:57;9.18;;;5.50;;
6735;SDS011;3405;50.576;12.364;2023-04-02T16:49:27;11.63;;;5.85;;
6735;SDS011;3405;50.576;12.364;2023-04-02T16:51:58;9.75;;;5.90;;
6735;SDS011;3405;50.576;12.364;2023-04-02T16:54:29;9.85;;;5.93;;
6735;SDS011;3405;50.576;12.364;2023-04-02T16:59:37;9.27;;;5.20;;
6735;SDS011;3405;50.576;12.364;2023-04-02T17:02:26;10.40;;;5.88;;
6735;SDS011;3405;50.576;12.364;2023-04-02T17:05:14;9.23;;;4.43;;
6735;SDS011;3405;50.576;12.364;2023-04-02T17:07:55;10.63;;;5.20;;
6735;SDS011;3405;50.576;12.364;2023-04-02T17:12:56;7.43;;;4.70;;
6735;SDS011;3405;50.576;12.364;2023-04-02T17:15:27;7.85;;;5.10;;
6735;SDS011;3405;50.576;12.364;2023-04-02T17:17:54;8.18;;;4.72;;
6735;SDS011;3405;50.576;12.364;2023-04-02T17:20:22;8.38;;;5.07;;
6735;SDS011;3405;50.576;12.364;2023-04-02T17:22:48;7.65;;;4.85;;
6735;SDS011;3405;50.576;12.364;2023-04-02T17:25:25;9.00;;;5.45;;
6735;SDS011;3405;50.576;12.364;2023-04-02T17:27:53;7.60;;;4.43;;
6735;SDS011;3405;50.576;12.364;2023-04-02T17:32:45;6.97;;;4.28;;
6735;SDS011;3405;50.576;12.364;2023-04-02T17:35:15;5.78;;;3.92;;
6735;SDS011;3405;50.576;12.364;2023-04-02T17:40:29;6.05;;;3.70;;
6735;SDS011;3405;50.576;12.364;2023-04-02T17:43:01;6.57;;;3.95;;
6735;SDS011;3405;50.576;12.364;2023-04-02T17:48:02;4.68;;;3.35;;
6735;SDS011;3405;50.576;12.364;2023-04-02T17:50:34;5.70;;;3.72;;
6735;SDS011;3405;50.576;12.364;2023-04-02T17:53:07;6.35;;;3.78;;